createdAt,value
2017-02-05T00:01:00.293Z,75
2017-02-05T00:02:10.646Z,75
2017-02-05T00:03:21.008Z,75
2017-02-05T00:04:31.747Z,75.09
2017-02-05T00:05:42.506Z,74.81
2017-02-05T00:06:53.263Z,75
2017-02-05T00:08:03.238Z,74.87
2017-02-05T00:09:13.988Z,74.9
2017-02-05T00:10:24.744Z,74.71
2017-02-05T00:11:35.521Z,74.77
2017-02-05T00:12:45.868Z,74.68
2017-02-05T00:13:56.650Z,74.77
2017-02-05T00:15:07.012Z,74.77
2017-02-05T00:16:16.584Z,75.34
2017-02-05T00:17:26.535Z,75.15
2017-02-05T00:18:37.291Z,75.43
2017-02-05T00:19:48.028Z,75.05
2017-02-05T00:20:58.782Z,75.05
2017-02-05T00:22:09.135Z,75.34
2017-02-05T00:23:19.884Z,74.77
2017-02-05T00:24:30.659Z,74.68
2017-02-05T00:25:41.419Z,74.77
2017-02-05T00:26:52.163Z,74.68
2017-02-05T00:28:02.520Z,75.05
2017-02-05T00:29:13.256Z,74.87
2017-02-05T00:30:24.001Z,74.87
2017-02-05T00:31:34.364Z,74.77
2017-02-05T00:32:45.133Z,74.77
2017-02-05T00:33:55.522Z,74.96
2017-02-05T00:35:06.266Z,74.87
2017-02-05T00:36:17.007Z,74.96
2017-02-05T00:37:27.374Z,74.87
2017-02-05T00:38:37.755Z,74.77
2017-02-05T00:39:48.512Z,75.09
2017-02-05T00:40:59.249Z,74.96
2017-02-05T00:42:09.605Z,74.96
2017-02-05T00:43:20.376Z,74.9
2017-02-05T00:44:30.345Z,74.68
2017-02-05T00:45:40.300Z,74.9
2017-02-05T00:46:49.859Z,74.96
2017-02-05T00:47:59.810Z,74.9
2017-02-05T00:49:10.559Z,74.68
2017-02-05T00:50:21.310Z,75.34
2017-02-05T00:51:31.270Z,75.24
2017-02-05T00:52:41.241Z,74.96
2017-02-05T00:53:52.019Z,74.96
2017-02-05T00:55:02.374Z,75.05
2017-02-05T00:56:12.348Z,74.58
2017-02-05T00:57:23.131Z,75.15
2017-02-05T00:58:33.495Z,74.96
2017-02-05T00:59:43.841Z,74.71
2017-02-05T01:00:54.178Z,75.15
2017-02-05T01:02:04.937Z,74.77
2017-02-05T01:03:15.677Z,74.77
2017-02-05T01:04:26.019Z,74.81
2017-02-05T01:05:36.367Z,74.9
2017-02-05T01:06:46.332Z,74.77
2017-02-05T01:07:57.079Z,74.77
2017-02-05T01:09:07.842Z,75.34
2017-02-05T01:10:17.802Z,74.96
2017-02-05T01:11:27.820Z,75.15
2017-02-05T01:12:38.179Z,75.43
2017-02-05T01:13:48.539Z,74.96
2017-02-05T01:14:58.509Z,75.05
2017-02-05T01:16:09.256Z,75.15
2017-02-05T01:17:20.014Z,75.24
2017-02-05T01:18:29.574Z,75.05
2017-02-05T01:19:39.130Z,75.05
2017-02-05T01:20:49.090Z,74.87
2017-02-05T01:21:59.890Z,74.87
2017-02-05T01:23:10.248Z,74.68
2017-02-05T01:24:20.993Z,75.15
2017-02-05T01:25:30.956Z,74.77
2017-02-05T01:26:41.310Z,74.87
2017-02-05T01:27:51.663Z,74.87
2017-02-05T01:29:02.022Z,74.87
2017-02-05T01:30:11.581Z,74.77
2017-02-05T01:31:21.928Z,75.05
2017-02-05T01:32:32.276Z,74.68
2017-02-05T01:33:43.025Z,75.05
2017-02-05T01:34:53.383Z,75.05
2017-02-05T01:36:04.124Z,75.05
2017-02-05T01:37:14.870Z,74.96
2017-02-05T01:38:25.614Z,75.05
2017-02-05T01:39:35.182Z,75.24
2017-02-05T01:40:45.945Z,75.05
2017-02-05T01:41:56.693Z,75.15
2017-02-05T01:43:07.440Z,75.62
2017-02-05T01:44:18.179Z,75.24
2017-02-05T01:45:28.529Z,75.34
2017-02-05T01:46:38.881Z,75.05
2017-02-05T01:47:49.244Z,75.34
2017-02-05T01:48:59.630Z,75.05
2017-02-05T01:50:10.380Z,75.05
2017-02-05T01:51:21.126Z,75.43
2017-02-05T01:52:31.479Z,75.05
2017-02-05T01:53:41.834Z,74.77
2017-02-05T01:54:52.190Z,75.05
2017-02-05T01:56:02.548Z,75.05
2017-02-05T01:57:12.920Z,74.87
2017-02-05T01:58:23.267Z,75.05
2017-02-05T01:59:34.010Z,75.05
2017-02-05T02:00:43.978Z,75.05
2017-02-05T02:01:54.329Z,75.05
2017-02-05T02:03:05.072Z,75.15
2017-02-05T02:04:15.421Z,75.43
2017-02-05T02:05:26.182Z,75.15
2017-02-05T02:06:36.520Z,74.77
2017-02-05T02:07:47.265Z,75.15
2017-02-05T02:08:58.023Z,74.87
2017-02-05T02:10:07.976Z,75.15
2017-02-05T02:11:17.938Z,75.05
2017-02-05T02:12:28.303Z,75.24
2017-02-05T02:13:38.650Z,74.96
2017-02-05T02:14:49.404Z,75.24
2017-02-05T02:16:00.157Z,75.05
2017-02-05T02:17:10.904Z,75.15
2017-02-05T02:18:21.891Z,75.24
2017-02-05T02:19:32.236Z,75.15
2017-02-05T02:20:42.623Z,75.15
2017-02-05T02:21:53.376Z,75.05
2017-02-05T02:23:03.751Z,74.68
2017-02-05T02:24:14.505Z,74.87
2017-02-05T02:25:24.080Z,74.68
2017-02-05T02:26:34.436Z,74.87
2017-02-05T02:27:44.784Z,75.24
2017-02-05T02:28:55.529Z,75.24
2017-02-05T02:30:05.491Z,74.87
2017-02-05T02:31:16.264Z,75.15
2017-02-05T02:32:26.221Z,74.87
2017-02-05T02:33:36.608Z,74.96
2017-02-05T02:34:46.972Z,74.77
2017-02-05T02:35:56.946Z,74.96
2017-02-05T02:37:07.698Z,75.62
2017-02-05T02:38:18.444Z,75.62
2017-02-05T02:39:28.400Z,75.24
2017-02-05T02:40:38.752Z,75.43
2017-02-05T02:41:48.717Z,75.24
2017-02-05T02:42:59.451Z,75.24
2017-02-05T02:44:10.201Z,75.62
2017-02-05T02:45:20.942Z,75.05
2017-02-05T02:46:31.676Z,74.87
2017-02-05T02:47:41.640Z,75.15
2017-02-05T02:48:52.381Z,75.05
2017-02-05T02:50:02.341Z,75.05
2017-02-05T02:51:12.689Z,75.05
2017-02-05T02:52:23.436Z,75.05
2017-02-05T02:53:33.781Z,75.05
2017-02-05T02:54:44.530Z,74.87
2017-02-05T02:55:55.272Z,75.05
2017-02-05T02:57:06.037Z,74.87
2017-02-05T02:58:16.405Z,75.05
2017-02-05T02:59:27.150Z,75.43
2017-02-05T03:00:36.711Z,75.05
2017-02-05T03:32:33.171Z,72.57
2017-02-05T03:33:43.936Z,72.57
2017-02-05T03:34:54.316Z,73.52
2017-02-05T03:36:04.660Z,74.95
2017-02-05T03:37:15.002Z,75.26
2017-02-05T03:38:24.967Z,76.4
2017-02-05T03:39:35.317Z,76.68
2017-02-05T03:40:45.673Z,76.4
2017-02-05T03:41:56.020Z,77.16
2017-02-05T03:43:06.367Z,77.29
2017-02-05T03:44:16.314Z,77.48
2017-02-05T03:45:26.660Z,77.58
2017-02-05T03:46:36.630Z,77.43
2017-02-05T03:47:47.613Z,77.43
2017-02-05T03:48:57.969Z,77.24
2017-02-05T03:50:07.933Z,77.14
2017-02-05T03:51:18.316Z,76.8
2017-02-05T03:52:29.093Z,76.71
2017-02-05T03:53:39.850Z,76.71
2017-02-05T03:54:50.618Z,76.9
2017-02-05T03:56:00.970Z,76.75
2017-02-05T03:57:11.747Z,76.93
2017-02-05T03:58:21.709Z,76.93
2017-02-05T03:59:32.049Z,76.93
2017-02-05T04:00:42.023Z,76.93
2017-02-05T04:01:52.769Z,76.78
2017-02-05T04:03:03.524Z,76.65
2017-02-05T04:04:14.326Z,76.88
2017-02-05T04:05:24.277Z,76.88
2017-02-05T04:06:35.016Z,76.97
2017-02-05T04:07:45.763Z,77.07
2017-02-05T04:08:56.520Z,76.97
2017-02-05T04:10:07.277Z,76.97
2017-02-05T04:11:17.625Z,77.17
2017-02-05T04:12:28.377Z,77.17
2017-02-05T04:13:38.730Z,77.2
2017-02-05T04:14:48.697Z,77.3
2017-02-05T04:15:59.449Z,77.01
2017-02-05T04:17:10.196Z,76.92
2017-02-05T04:18:20.552Z,77.11
2017-02-05T04:19:31.308Z,77.2
2017-02-05T04:20:41.268Z,77.11
2017-02-05T04:21:52.019Z,77.01
2017-02-05T04:23:02.760Z,77.01
2017-02-05T04:24:13.141Z,76.82
2017-02-05T04:25:23.083Z,76.92
2017-02-05T04:26:33.446Z,76.92
2017-02-05T04:27:44.188Z,76.82
2017-02-05T04:28:54.935Z,76.82
2017-02-05T04:30:04.885Z,76.82
2017-02-05T04:31:14.484Z,76.82
2017-02-05T04:32:24.848Z,76.73
2017-02-05T04:33:35.192Z,76.73
2017-02-05T04:34:45.565Z,76.82
2017-02-05T04:35:56.326Z,76.92
2017-02-05T04:37:07.061Z,77.01
2017-02-05T04:38:17.415Z,76.82
2017-02-05T04:39:27.764Z,76.82
2017-02-05T04:40:38.120Z,76.82
2017-02-05T04:41:48.083Z,76.96
2017-02-05T04:42:59.060Z,76.96
2017-02-05T04:44:09.809Z,76.86
2017-02-05T04:45:20.559Z,76.96
2017-02-05T04:46:31.308Z,76.96
2017-02-05T04:47:42.071Z,76.96
2017-02-05T04:48:52.815Z,76.86
2017-02-05T04:50:03.383Z,76.86
2017-02-05T04:51:13.725Z,76.86
2017-02-05T04:52:24.081Z,76.86
2017-02-05T04:53:34.035Z,76.86
2017-02-05T04:54:44.780Z,76.96
2017-02-05T04:55:55.135Z,77.05
2017-02-05T04:57:05.895Z,76.96
2017-02-05T04:58:16.647Z,77.05
2017-02-05T04:59:27.405Z,76.76
2017-02-05T05:00:37.354Z,77.05
2017-02-05T05:01:47.363Z,76.86
2017-02-05T05:02:57.708Z,77.15
2017-02-05T05:04:08.061Z,77.15
2017-02-05T05:05:18.811Z,77.24
2017-02-05T05:06:29.190Z,77.24
2017-02-05T05:07:39.156Z,77.05
2017-02-05T05:08:49.107Z,77.05
2017-02-05T05:09:59.062Z,76.76
2017-02-05T05:11:09.807Z,77.15
2017-02-05T05:12:20.553Z,76.9
2017-02-05T05:13:30.919Z,76.9
2017-02-05T05:14:40.488Z,76.9
2017-02-05T05:15:50.838Z,76.61
2017-02-05T05:17:01.187Z,76.81
2017-02-05T05:18:11.135Z,76.81
2017-02-05T05:19:21.487Z,76.81
2017-02-05T05:20:32.264Z,76.71
2017-02-05T05:21:43.019Z,76.71
2017-02-05T05:22:53.769Z,76.71
2017-02-05T05:24:04.515Z,76.52
2017-02-05T05:25:15.285Z,76.52
2017-02-05T05:26:25.630Z,76.52
2017-02-05T05:27:35.989Z,76.61
2017-02-05T05:28:46.410Z,76.61
2017-02-05T05:29:57.166Z,76.71
2017-02-05T05:31:07.520Z,76.61
2017-02-05T05:32:17.873Z,76.81
2017-02-05T05:33:28.225Z,76.71
2017-02-05T05:34:38.977Z,77.09
2017-02-05T05:35:49.723Z,76.81
2017-02-05T05:37:00.470Z,77.09
2017-02-05T05:38:11.230Z,77.43
2017-02-05T05:39:21.593Z,77.09
2017-02-05T05:40:32.348Z,77.05
2017-02-05T05:41:43.087Z,77.05
2017-02-05T05:42:53.842Z,76.96
2017-02-05T05:44:04.205Z,77.09
2017-02-05T05:45:14.962Z,77.09
2017-02-05T05:46:25.732Z,77.09
2017-02-05T05:47:36.087Z,77.09
2017-02-05T05:48:46.442Z,77.09
2017-02-05T05:49:56.402Z,77.09
2017-02-05T05:51:07.155Z,76.96
2017-02-05T05:52:17.915Z,76.96
2017-02-05T05:53:28.657Z,77.05
2017-02-05T05:54:38.608Z,77
2017-02-05T05:55:49.595Z,77.05
2017-02-05T05:57:00.349Z,76.9
2017-02-05T05:58:10.308Z,76.81
2017-02-05T05:59:19.881Z,77.19
2017-02-05T06:00:30.236Z,76.71
2017-02-05T06:01:40.588Z,76.71
2017-02-05T06:02:50.935Z,76.61
2017-02-05T06:04:01.677Z,76.71
2017-02-05T06:05:12.013Z,76.71
2017-02-05T06:06:22.758Z,77.09
2017-02-05T06:07:33.499Z,76.61
2017-02-05T06:08:43.855Z,76.81
2017-02-05T06:09:54.205Z,76.9
2017-02-05T06:11:04.560Z,76.67
2017-02-05T06:12:14.926Z,77.09
2017-02-05T06:13:24.894Z,76.96
2017-02-05T06:14:35.247Z,76.86
2017-02-05T06:15:45.997Z,77.24
2017-02-05T06:16:56.746Z,76.96
2017-02-05T06:18:07.116Z,76.96
2017-02-05T06:19:17.915Z,77.05
2017-02-05T06:20:28.260Z,77.05
2017-02-05T06:21:39.206Z,77.24
2017-02-05T06:22:49.954Z,77.15
2017-02-05T06:24:00.310Z,77.24
2017-02-05T06:25:10.285Z,76.96
2017-02-05T06:26:20.263Z,77.05
2017-02-05T06:27:30.211Z,76.86
2017-02-05T06:28:40.961Z,77.05
2017-02-05T06:29:51.313Z,77.15
2017-02-05T06:31:01.660Z,76.96
2017-02-05T06:32:11.625Z,76.76
2017-02-05T06:33:22.379Z,76.86
2017-02-05T06:34:33.153Z,76.57
2017-02-05T06:35:43.745Z,76.48
2017-02-05T06:36:54.104Z,76.48
2017-02-05T06:38:04.866Z,76.57
2017-02-05T06:39:14.836Z,76.48
2017-02-05T06:40:25.193Z,76.57
2017-02-05T06:41:35.941Z,76.48
2017-02-05T06:42:46.287Z,76.67
2017-02-05T06:43:57.041Z,76.57
2017-02-05T06:45:07.789Z,76.2
2017-02-05T06:46:18.538Z,76.48
2017-02-05T06:47:28.494Z,76.67
2017-02-05T06:48:38.856Z,76.29
2017-02-05T06:49:48.833Z,75.81
2017-02-05T06:50:59.595Z,75.81
2017-02-05T06:52:10.336Z,75.43
2017-02-05T06:53:20.717Z,75.43
2017-02-05T06:54:31.086Z,75.85
2017-02-05T06:55:41.675Z,75.81
2017-02-05T06:56:52.023Z,75.76
2017-02-05T06:58:02.395Z,75.81
2017-02-05T06:59:12.743Z,75.43
2017-02-05T07:00:23.500Z,76.1
2017-02-05T07:01:33.871Z,75.53
2017-02-05T07:02:43.834Z,75.76
2017-02-05T07:03:54.195Z,75.43
2017-02-05T07:05:04.552Z,75.81
2017-02-05T07:06:15.297Z,75.28
2017-02-05T07:07:24.862Z,75.09
2017-02-05T07:08:35.208Z,75.28
2017-02-05T07:09:46.000Z,75.09
2017-02-05T07:10:55.951Z,75.19
2017-02-05T07:12:06.737Z,75.28
2017-02-05T07:13:17.102Z,75.19
2017-02-05T07:14:27.460Z,75.38
2017-02-05T07:15:37.817Z,75.19
2017-02-05T07:16:48.559Z,75.19
2017-02-05T07:17:59.345Z,75.57
2017-02-05T07:19:10.099Z,75.04
2017-02-05T07:20:20.846Z,75.13
2017-02-05T07:21:31.200Z,75.04
2017-02-05T07:22:41.557Z,75.13
2017-02-05T07:23:52.314Z,75.13
2017-02-05T07:25:01.929Z,75.23
2017-02-05T07:26:12.279Z,75.13
2017-02-05T07:27:22.645Z,75.13
2017-02-05T07:28:33.397Z,75.32
2017-02-05T07:29:43.763Z,75.04
2017-02-05T07:30:54.520Z,75.07
2017-02-05T07:32:05.333Z,75.26
2017-02-05T07:33:15.707Z,75.07
2017-02-05T07:34:26.445Z,75.26
2017-02-05T07:35:37.243Z,75.07
2017-02-05T07:36:47.595Z,75.36
2017-02-05T07:37:57.555Z,75.26
2017-02-05T07:39:07.927Z,75.26
2017-02-05T07:40:18.674Z,75.26
2017-02-05T07:41:28.640Z,75.26
2017-02-05T07:42:38.996Z,75.26
2017-02-05T07:43:49.745Z,75.26
2017-02-05T07:44:59.701Z,75.16
2017-02-05T07:46:09.278Z,75.2
2017-02-05T07:47:19.646Z,74.73
2017-02-05T07:48:29.621Z,75.01
2017-02-05T07:49:40.368Z,74.63
2017-02-05T07:50:50.719Z,74.82
2017-02-05T07:52:01.487Z,74.63
2017-02-05T07:53:12.046Z,74.92
2017-02-05T07:54:21.621Z,74.92
2017-02-05T07:55:31.979Z,74.92
2017-02-05T07:56:42.329Z,74.92
2017-02-05T07:57:52.704Z,74.92
2017-02-05T07:59:03.108Z,74.77
2017-02-05T08:00:13.064Z,74.96
2017-02-05T08:01:23.463Z,74.96
2017-02-05T08:02:33.837Z,74.96
2017-02-05T08:03:44.594Z,74.96
2017-02-05T08:04:55.340Z,74.96
2017-02-05T08:06:05.686Z,74.86
2017-02-05T08:07:16.046Z,74.96
2017-02-05T08:08:26.826Z,74.8
2017-02-05T08:09:37.587Z,74.9
2017-02-05T08:10:47.945Z,74.8
2017-02-05T08:11:58.311Z,74.8
2017-02-05T08:13:08.667Z,74.99
2017-02-05T08:14:18.650Z,74.71
2017-02-05T08:15:29.017Z,74.71
2017-02-05T08:16:39.781Z,74.99
2017-02-05T08:17:50.141Z,74.9
2017-02-05T08:19:00.916Z,74.8
2017-02-05T08:20:10.873Z,74.8
2017-02-05T08:21:21.233Z,74.84
2017-02-05T08:22:31.990Z,74.84
2017-02-05T08:23:42.373Z,74.65
2017-02-05T08:24:53.140Z,74.93
2017-02-05T08:26:03.107Z,75.03
2017-02-05T08:27:13.070Z,74.93
2017-02-05T08:28:23.825Z,74.93
2017-02-05T08:29:33.792Z,74.93
2017-02-05T08:30:44.553Z,74.93
2017-02-05T08:31:54.901Z,74.78
2017-02-05T08:33:05.268Z,74.88
2017-02-05T08:34:15.637Z,74.88
2017-02-05T08:35:26.400Z,74.78
2017-02-05T08:36:37.148Z,74.98
2017-02-05T08:37:47.898Z,74.88
2017-02-05T08:38:58.253Z,74.88
2017-02-05T08:40:09.008Z,74.78
2017-02-05T08:41:18.989Z,74.88
2017-02-05T08:42:28.979Z,75.07
2017-02-05T08:43:39.747Z,75.07
2017-02-05T08:44:50.130Z,74.88
2017-02-05T08:46:00.485Z,74.78
2017-02-05T08:47:10.447Z,74.88
2017-02-05T08:48:20.806Z,74.82
2017-02-05T08:49:31.187Z,74.78
2017-02-05T08:50:41.980Z,74.69
2017-02-05T08:51:52.729Z,74.82
2017-02-05T08:53:03.093Z,75.01
2017-02-05T08:54:13.851Z,74.91
2017-02-05T08:55:23.430Z,74.44
2017-02-05T08:56:34.177Z,74.44
2017-02-05T08:57:44.933Z,74.24
2017-02-05T08:58:55.692Z,74.44
2017-02-05T09:00:06.446Z,74.15
2017-02-05T09:01:17.203Z,74.44
2017-02-05T09:02:27.957Z,74.38
2017-02-05T09:03:38.757Z,74.34
2017-02-05T09:04:49.105Z,74.38
2017-02-05T09:05:59.069Z,74.38
2017-02-05T09:07:09.024Z,74.38
2017-02-05T09:08:19.778Z,74.28
2017-02-05T09:09:30.143Z,74.28
2017-02-05T09:10:40.108Z,74.19
2017-02-05T09:11:50.474Z,74.19
2017-02-05T09:13:00.884Z,74.19
2017-02-05T09:14:11.253Z,73.99
2017-02-05T09:15:22.022Z,73.99
2017-02-05T09:16:32.390Z,74.38
2017-02-05T09:17:42.362Z,74.38
2017-02-05T09:18:53.137Z,74.28
2017-02-05T09:20:03.902Z,74.38
2017-02-05T09:21:14.672Z,74.38
2017-02-05T09:22:24.643Z,74.19
2017-02-05T09:23:35.395Z,74.04
2017-02-05T09:24:45.355Z,74.51
2017-02-05T09:25:56.120Z,74.51
2017-02-05T09:27:06.487Z,74.22
2017-02-05T09:28:16.852Z,74.13
2017-02-05T09:29:27.695Z,74.13
2017-02-05T09:30:38.052Z,74.22
2017-02-05T09:31:48.417Z,74.07
2017-02-05T09:32:58.389Z,74.55
2017-02-05T09:34:08.755Z,74.16
2017-02-05T09:35:19.510Z,74.26
2017-02-05T09:36:30.095Z,74.16
2017-02-05T09:37:40.846Z,74.16
2017-02-05T09:38:51.216Z,74.36
2017-02-05T09:40:01.599Z,74.26
2017-02-05T09:41:12.356Z,74.36
2017-02-05T09:42:23.112Z,74.16
2017-02-05T09:43:33.075Z,74.07
2017-02-05T09:44:43.818Z,74.07
2017-02-05T09:45:54.608Z,74.26
2017-02-05T09:47:04.966Z,74.45
2017-02-05T09:48:15.325Z,74.26
2017-02-05T09:49:26.080Z,74.45
2017-02-05T09:50:36.820Z,74.36
2017-02-05T09:51:47.596Z,74.49
2017-02-05T09:52:58.358Z,74.45
2017-02-05T09:54:08.728Z,74.4
2017-02-05T09:55:19.489Z,74.36
2017-02-05T09:56:29.462Z,74.49
2017-02-05T09:57:39.814Z,74.4
2017-02-05T09:58:50.206Z,74.26
2017-02-05T10:00:00.963Z,74.55
2017-02-05T10:01:11.378Z,74.36
2017-02-05T10:02:21.742Z,74.4
2017-02-05T10:03:31.716Z,74.3
2017-02-05T10:04:42.086Z,74.49
2017-02-05T10:05:52.050Z,74.2
2017-02-05T10:07:02.803Z,74.3
2017-02-05T10:08:13.161Z,74.11
2017-02-05T10:09:23.524Z,74.2
2017-02-05T10:10:34.283Z,74.01
2017-02-05T10:11:44.654Z,74.68
2017-02-05T10:12:55.030Z,74.58
2017-02-05T10:14:05.793Z,74.01
2017-02-05T10:15:16.158Z,74.01
2017-02-05T10:16:26.916Z,74.4
2017-02-05T10:17:37.726Z,74.11
2017-02-05T10:18:48.485Z,74.2
2017-02-05T10:19:59.251Z,74.11
2017-02-05T10:21:10.045Z,74.2
2017-02-05T10:22:20.809Z,74.01
2017-02-05T10:23:31.563Z,74.49
2017-02-05T10:24:41.922Z,74.11
2017-02-05T10:25:52.271Z,74.24
2017-02-05T10:27:02.631Z,74.2
2017-02-05T10:28:12.988Z,74.2
2017-02-05T10:29:23.749Z,74.24
2017-02-05T10:30:34.511Z,74.3
2017-02-05T10:31:44.472Z,74.33
2017-02-05T10:32:54.865Z,74.58
2017-02-05T10:34:05.232Z,74.11
2017-02-05T10:35:16.007Z,74.43
2017-02-05T10:36:26.582Z,74.15
2017-02-05T10:37:36.953Z,74.58
2017-02-05T10:38:46.922Z,74.49
2017-02-05T10:39:57.666Z,73.95
2017-02-05T10:41:08.029Z,74.01
2017-02-05T10:42:18.418Z,74.15
2017-02-05T10:43:28.776Z,74.05
2017-02-05T10:44:39.540Z,73.86
2017-02-05T10:45:49.505Z,73.95
2017-02-05T10:47:00.270Z,73.76
2017-02-05T10:48:09.872Z,73.76
2017-02-05T10:49:20.234Z,73.95
2017-02-05T10:50:30.618Z,73.95
2017-02-05T10:51:41.367Z,73.95
2017-02-05T10:52:51.739Z,74.05
2017-02-05T10:54:02.098Z,73.76
2017-02-05T10:55:12.862Z,73.95
2017-02-05T10:56:23.618Z,73.9
2017-02-05T10:57:34.406Z,73.9
2017-02-05T10:58:44.787Z,73.9
2017-02-05T10:59:55.558Z,73.61
2017-02-05T11:01:06.333Z,74.08
2017-02-05T11:02:16.728Z,73.51
2017-02-05T11:03:27.108Z,73.61
2017-02-05T11:04:37.893Z,73.41
2017-02-05T11:05:47.865Z,73.51
2017-02-05T11:06:57.838Z,73.51
2017-02-05T11:08:08.632Z,73.61
2017-02-05T11:09:19.003Z,73.99
2017-02-05T11:10:29.396Z,73.41
2017-02-05T11:11:39.772Z,73.32
2017-02-05T11:12:50.157Z,73.7
2017-02-05T11:14:00.532Z,73.32
2017-02-05T11:15:10.898Z,73.45
2017-02-05T11:16:21.306Z,73.55
2017-02-05T11:17:31.661Z,73.35
2017-02-05T11:18:42.431Z,73.55
2017-02-05T11:19:52.802Z,73.45
2017-02-05T11:21:03.177Z,73.35
2017-02-05T11:22:13.542Z,73.45
2017-02-05T11:23:23.923Z,73.35
2017-02-05T11:24:34.701Z,73.45
2017-02-05T11:25:45.070Z,73.35
2017-02-05T11:26:55.049Z,73.55
2017-02-05T11:28:05.070Z,73.35
2017-02-05T11:29:15.453Z,73.68
2017-02-05T11:30:26.242Z,73.3
2017-02-05T11:31:35.426Z,73.39
2017-02-05T11:32:45.805Z,74.35
2017-02-05T11:33:56.179Z,74.06
2017-02-05T11:35:06.934Z,74.06
2017-02-05T11:36:17.291Z,74.31
2017-02-05T11:37:28.261Z,74.02
2017-02-05T11:38:39.039Z,73.74
2017-02-05T11:39:49.008Z,74.12
2017-02-05T11:40:59.366Z,73.97
2017-02-05T11:42:09.743Z,73.87
2017-02-05T11:43:20.505Z,73.97
2017-02-05T11:44:31.303Z,74.06
2017-02-05T11:45:41.291Z,74.16
2017-02-05T11:46:52.063Z,74.06
2017-02-05T11:48:02.033Z,73.77
2017-02-05T11:49:12.457Z,73.87
2017-02-05T11:50:22.836Z,74.06
2017-02-05T11:51:32.891Z,73.77
2017-02-05T11:52:43.664Z,74.06
2017-02-05T11:53:54.032Z,74.16
2017-02-05T11:55:04.796Z,74.26
2017-02-05T11:56:15.173Z,74.44
2017-02-05T11:57:25.937Z,74.64
2017-02-05T11:58:36.306Z,74.64
2017-02-05T11:59:46.701Z,74.64
2017-02-05T12:00:57.463Z,74.16
2017-02-05T12:02:08.231Z,73.97
2017-02-05T12:03:18.599Z,73.49
2017-02-05T12:04:29.363Z,73.3
2017-02-05T12:05:39.770Z,73.62
2017-02-05T12:06:50.149Z,73.43
2017-02-05T12:08:00.526Z,73.43
2017-02-05T12:09:11.310Z,73.52
2017-02-05T12:10:22.060Z,73.81
2017-02-05T12:11:32.848Z,74.01
2017-02-05T12:12:43.246Z,73.72
2017-02-05T12:13:54.022Z,73.72
2017-02-05T12:15:04.828Z,73.62
2017-02-05T12:16:15.616Z,73.66
2017-02-05T12:17:26.369Z,73.66
2017-02-05T12:18:35.968Z,73.66
2017-02-05T12:19:46.332Z,73.66
2017-02-05T12:20:56.766Z,73.56
2017-02-05T12:22:07.539Z,73.37
2017-02-05T12:23:17.922Z,73.27
2017-02-05T12:24:28.739Z,73.18
2017-02-05T12:25:39.111Z,73.79
2017-02-05T12:26:49.468Z,72.83
2017-02-05T12:27:59.840Z,72.92
2017-02-05T12:29:10.606Z,73.11
2017-02-05T12:30:21.397Z,73.02
2017-02-05T12:31:32.161Z,73.11
2017-02-05T12:32:41.743Z,73.21
2017-02-05T12:33:51.726Z,73.5
2017-02-05T12:35:02.094Z,73.31
2017-02-05T12:36:12.871Z,73.46
2017-02-05T12:37:23.227Z,73.37
2017-02-05T12:38:33.988Z,73.85
2017-02-05T12:39:44.383Z,74.29
2017-02-05T12:40:55.135Z,75.45
2017-02-05T12:42:05.105Z,75.31
2017-02-05T12:43:15.063Z,75.79
2017-02-05T12:44:25.421Z,75.46
2017-02-05T12:45:35.781Z,74.6
2017-02-05T12:46:46.550Z,74.12
2017-02-05T12:47:57.325Z,73.49
2017-02-05T12:49:07.313Z,73.68
2017-02-05T12:50:18.068Z,73.1
2017-02-05T12:51:28.418Z,73.68
2017-02-05T12:52:38.787Z,73.68
2017-02-05T12:53:49.155Z,74.64
2017-02-05T12:54:59.535Z,74.31
2017-02-05T12:56:09.927Z,73.45
2017-02-05T12:57:19.907Z,73.49
2017-02-05T12:58:30.654Z,73.77
2017-02-05T12:59:41.406Z,73.1
2017-02-05T13:00:52.154Z,73.3
2017-02-05T13:02:02.532Z,73.68
2017-02-05T13:03:12.900Z,72.88
2017-02-05T13:04:23.254Z,73.35
2017-02-05T13:05:33.631Z,73.1
2017-02-05T13:06:44.408Z,73.2
2017-02-05T13:07:54.760Z,73.2
2017-02-05T13:09:05.131Z,72.88
2017-02-05T13:10:15.889Z,73.74
2017-02-05T13:11:26.653Z,73.83
2017-02-05T13:12:37.406Z,74.66
2017-02-05T13:13:48.171Z,74.57
2017-02-05T13:14:58.147Z,74.66
2017-02-05T13:16:08.111Z,74.91
2017-02-05T13:17:18.872Z,75.1
2017-02-05T13:18:29.640Z,74.62
2017-02-05T13:19:40.420Z,74.52
2017-02-05T13:20:50.798Z,74.18
2017-02-05T13:22:01.557Z,74.33
2017-02-05T13:23:11.533Z,74.43
2017-02-05T13:24:21.516Z,74.4
2017-02-05T13:25:31.549Z,74.01
2017-02-05T13:26:41.925Z,73.86
2017-02-05T13:27:52.696Z,73.38
2017-02-05T13:29:03.465Z,73.47
2017-02-05T13:30:13.837Z,74.52
2017-02-05T13:31:23.818Z,74.62
2017-02-05T13:32:34.184Z,75.16
2017-02-05T13:33:44.936Z,75.41
2017-02-05T13:34:55.284Z,75.31
2017-02-05T13:36:05.651Z,75.02
2017-02-05T13:37:16.043Z,74.93
2017-02-05T13:38:26.409Z,74.93
2017-02-05T13:39:37.176Z,74.45
2017-02-05T13:40:47.547Z,74.2
2017-02-05T13:41:57.149Z,73.34
2017-02-05T13:43:07.511Z,73.63
2017-02-05T13:44:17.110Z,74.49
2017-02-05T13:45:27.869Z,73.97
2017-02-05T13:46:38.232Z,74.58
2017-02-05T13:47:49.003Z,74.45
2017-02-05T13:48:59.391Z,74.93
2017-02-05T13:50:10.158Z,74.55
2017-02-05T13:51:20.563Z,74.16
2017-02-05T13:52:30.554Z,74.55
2017-02-05T13:53:40.156Z,74.55
2017-02-05T13:54:50.917Z,75.31
2017-02-05T13:56:01.685Z,75.12
2017-02-05T13:57:12.457Z,75.7
2017-02-05T13:58:23.238Z,75.47
2017-02-05T13:59:34.003Z,75.76
2017-02-05T14:00:44.751Z,75.47
2017-02-05T14:01:55.523Z,75.66
2017-02-05T14:03:05.897Z,75.34
2017-02-05T14:04:16.662Z,76
2017-02-05T14:05:27.428Z,75.81
2017-02-05T14:06:38.255Z,75.62
2017-02-05T14:07:48.616Z,76.29
2017-02-05T14:08:58.585Z,76.2
2017-02-05T14:10:09.350Z,75.96
2017-02-05T14:11:20.106Z,75.96
2017-02-05T14:12:30.898Z,76.64
2017-02-05T14:13:41.271Z,76.69
2017-02-05T14:14:51.662Z,76.5
2017-02-05T14:16:02.054Z,76.12
2017-02-05T14:17:12.417Z,75.93
2017-02-05T14:18:22.817Z,76.12
2017-02-05T14:19:33.181Z,76.21
2017-02-05T14:20:43.156Z,75.93
2017-02-05T14:21:53.944Z,76.12
2017-02-05T14:23:04.699Z,76.21
2017-02-05T14:24:15.506Z,76.21
2017-02-05T14:25:26.292Z,76.12
2017-02-05T14:26:36.680Z,76.12
2017-02-05T14:27:47.035Z,76.03
2017-02-05T14:28:57.432Z,75.7
2017-02-05T14:30:08.188Z,76.18
2017-02-05T14:31:18.560Z,76.27
2017-02-05T14:32:28.947Z,76.08
2017-02-05T14:33:39.709Z,76.18
2017-02-05T14:34:49.676Z,76.27
2017-02-05T14:36:00.446Z,75.98
2017-02-05T14:37:10.400Z,76.08
2017-02-05T14:38:21.161Z,76.08
2017-02-05T14:39:31.520Z,75.89
2017-02-05T14:40:41.899Z,76.04
2017-02-05T14:41:52.752Z,76.14
2017-02-05T14:43:03.128Z,76.04
2017-02-05T14:44:13.892Z,76.14
2017-02-05T14:45:24.691Z,75.85
2017-02-05T14:46:35.461Z,76.04
2017-02-05T14:47:46.231Z,76.04
2017-02-05T14:48:56.603Z,76.14
2017-02-05T14:50:06.969Z,76.04
2017-02-05T14:51:17.740Z,75.95
2017-02-05T14:52:28.530Z,76.14
2017-02-05T14:53:38.888Z,76.23
2017-02-05T14:54:49.264Z,75.95
2017-02-05T14:56:00.028Z,76.14
2017-02-05T14:57:10.393Z,75.76
2017-02-05T14:58:20.772Z,76.1
2017-02-05T14:59:31.168Z,75.81
2017-02-05T15:00:41.536Z,75.81
2017-02-05T15:01:52.293Z,75.81
2017-02-05T15:03:02.672Z,75.72
2017-02-05T15:04:13.025Z,75.62
2017-02-05T15:05:23.770Z,75.81
2017-02-05T15:06:34.141Z,75.81
2017-02-05T15:07:44.493Z,75.81
2017-02-05T15:08:54.466Z,75.81
2017-02-05T15:10:04.860Z,75.81
2017-02-05T15:11:14.833Z,75.78
2017-02-05T15:12:25.196Z,75.87
2017-02-05T15:13:35.176Z,76.16
2017-02-05T15:14:45.543Z,76.16
2017-02-05T15:15:54.741Z,76.06
2017-02-05T15:17:05.507Z,75.87
2017-02-05T15:18:16.269Z,75.96
2017-02-05T15:19:26.232Z,75.96
2017-02-05T15:20:36.602Z,75.96
2017-02-05T15:21:46.965Z,75.4
2017-02-05T15:22:57.343Z,75.96
2017-02-05T15:24:07.715Z,75.96
2017-02-05T15:25:18.451Z,75.78
2017-02-05T15:26:29.205Z,75.96
2017-02-05T15:27:39.977Z,75.78
2017-02-05T15:28:50.347Z,75.96
2017-02-05T15:30:00.706Z,76.06
2017-02-05T15:31:11.488Z,75.87
2017-02-05T15:32:21.856Z,75.84
2017-02-05T15:33:32.612Z,76.12
2017-02-05T15:34:43.450Z,76.12
2017-02-05T15:35:54.194Z,75.93
2017-02-05T15:37:03.375Z,75.93
2017-02-05T15:38:13.337Z,75.84
2017-02-05T15:39:23.315Z,75.93
2017-02-05T15:40:33.280Z,76.03
2017-02-05T15:41:43.679Z,75.74